Time;durP1;ratioP1;P1;durP2;ratioP2;P2;SDS_P1;SDS_P2;PMS_P1;PMS_P2;Temp;Humidity;BMP_temperature;BMP_pressure;BME280_temperature;BME280_humidity;BME280_pressure;Samples;Min_cycle;Max_cycle;Signal;HPM_P1;HPM_P2
2023/05/28 00:01:54;;;;;;;15.30;6.97;;;;;;;12.23;76.24;101932.03;5009027;28;20037;-73
2023/05/28 00:04:21;;;;;;;13.98;7.93;;;;;;;12.21;76.16;101940.28;5007348;28;20034;-73
2023/05/28 00:06:48;;;;;;;13.68;7.22;;;;;;;12.19;75.75;101934.06;5007125;28;20390;-73
2023/05/28 00:09:14;;;;;;;16.33;7.72;;;;;;;12.15;76.22;101937.94;5007427;28;20398;-74
2023/05/28 00:11:40;;;;;;;19.48;7.90;;;;;;;12.13;76.54;101934.44;5005129;28;20034;-73
2023/05/28 00:14:05;;;;;;;14.20;7.85;;;;;;;12.04;77.51;101929.56;5007186;28;20073;-73
2023/05/28 00:16:31;;;;;;;16.42;8.05;;;;;;;12.00;76.45;101919.81;5007294;28;20038;-73
2023/05/28 00:18:56;;;;;;;29.55;9.10;;;;;;;11.97;76.64;101914.53;5006075;28;20030;-74
2023/05/28 00:21:21;;;;;;;18.00;6.95;;;;;;;11.91;76.90;101921.25;5007403;28;20046;-73
2023/05/28 00:23:47;;;;;;;16.40;7.75;;;;;;;11.86;77.80;101919.78;5005282;28;20452;-73
2023/05/28 00:26:12;;;;;;;17.20;7.35;;;;;;;11.80;76.90;101915.53;5006884;28;20038;-73
2023/05/28 00:28:38;;;;;;;15.68;7.68;;;;;;;11.71;76.81;101914.25;5023699;28;20021;-73
2023/05/28 00:31:03;;;;;;;20.15;9.20;;;;;;;11.65;77.60;101920.03;5022209;28;20096;-73
2023/05/28 00:33:29;;;;;;;20.73;9.10;;;;;;;11.62;77.53;101924.81;5021423;28;20018;-72
2023/05/28 00:35:55;;;;;;;12.88;7.57;;;;;;;11.55;77.11;101924.28;5006788;28;20054;-72
2023/05/28 00:38:21;;;;;;;15.68;8.18;;;;;;;11.52;78.67;101931.75;5005791;28;20494;-72
2023/05/28 00:40:48;;;;;;;14.40;8.18;;;;;;;11.48;78.97;101939.25;5004958;28;20445;-72
2023/05/28 00:43:13;;;;;;;16.70;8.18;;;;;;;11.42;78.53;101928.69;5006999;28;20030;-72
2023/05/28 00:45:39;;;;;;;19.90;9.23;;;;;;;11.43;78.00;101934.09;5006892;28;20486;-72
2023/05/28 00:48:04;;;;;;;15.23;8.25;;;;;;;11.42;79.07;101937.78;5005873;28;20092;-72
2023/05/28 00:50:30;;;;;;;22.80;8.38;;;;;;;11.41;77.95;101935.13;5022676;28;20033;-72
2023/05/28 00:52:56;;;;;;;19.40;7.95;;;;;;;11.40;78.17;101933.38;5024000;28;20531;-72
2023/05/28 00:55:22;;;;;;;17.63;7.97;;;;;;;11.39;78.15;101926.19;5025755;28;20116;-72
2023/05/28 00:57:49;;;;;;;17.35;7.68;;;;;;;11.38;78.16;101924.44;5013997;28;20033;-72
2023/05/28 01:00:16;;;;;;;15.15;7.97;;;;;;;11.37;78.37;101922.66;5005596;28;20041;-72
2023/05/28 01:02:41;;;;;;;18.23;8.18;;;;;;;11.31;79.05;101920.28;5005838;28;20034;-72
2023/05/28 01:05:08;;;;;;;20.17;8.25;;;;;;;11.21;78.45;101918.09;5006873;28;20041;-72
2023/05/28 01:07:34;;;;;;;20.63;9.23;;;;;;;11.16;79.11;101924.78;5006688;28;20369;-73
2023/05/28 01:10:00;;;;;;;16.00;8.45;;;;;;;11.15;79.02;101923.91;5005086;28;20034;-73
2023/05/28 01:12:26;;;;;;;23.58;9.52;;;;;;;11.11;80.64;101922.31;5015630;28;20072;-72
2023/05/28 01:14:54;;;;;;;18.27;8.70;;;;;;;11.10;79.38;101919.69;5028723;28;20039;-73
2023/05/28 01:17:21;;;;;;;18.88;8.73;;;;;;;11.11;78.87;101914.16;5027658;28;20032;-72
2023/05/28 01:19:47;;;;;;;18.40;8.85;;;;;;;11.14;79.00;101918.53;5012288;28;20029;-73
2023/05/28 01:22:15;;;;;;;18.95;9.70;;;;;;;11.11;79.66;101918.72;5019455;28;20041;-73
2023/05/28 01:24:42;;;;;;;20.23;9.88;;;;;;;11.05;80.52;101921.78;4992659;28;20137;-72
2023/05/28 01:27:07;;;;;;;25.88;9.13;;;;;;;11.02;80.64;101932.88;5008745;28;20041;-73
2023/05/28 01:29:33;;;;;;;13.93;8.35;;;;;;;10.96;80.99;101932.25;5016453;28;20107;-72
2023/05/28 01:31:58;;;;;;;17.33;8.85;;;;;;;10.96;80.00;101928.66;5026701;28;20538;-73
2023/05/28 01:34:24;;;;;;;20.85;9.30;;;;;;;11.01;81.07;101928.41;5027359;28;20030;-72
2023/05/28 01:36:57;;;;;;;17.75;9.18;;;;;;;11.05;81.62;101914.53;5025697;28;20043;-72
2023/05/28 01:39:25;;;;;;;20.88;9.55;;;;;;;11.07;81.62;101915.28;5028071;28;20041;-72
2023/05/28 01:41:50;;;;;;;16.38;9.40;;;;;;;11.03;81.66;101932.78;5023729;28;20446;-72
2023/05/28 01:44:18;;;;;;;23.98;8.98;;;;;;;10.97;81.24;101930.41;5008468;28;20120;-73
2023/05/28 01:46:46;;;;;;;20.48;9.32;;;;;;;10.95;80.77;101932.31;5010142;28;20037;-72
2023/05/28 01:49:12;;;;;;;16.75;9.07;;;;;;;10.94;80.83;101926.00;5008804;28;20037;-72
2023/05/28 01:51:37;;;;;;;14.80;8.70;;;;;;;10.94;81.29;101927.84;5010118;28;20044;-72
2023/05/28 01:54:03;;;;;;;18.95;9.05;;;;;;;10.93;80.77;101921.53;5009590;28;20101;-72
2023/05/28 01:56:29;;;;;;;20.08;9.10;;;;;;;10.90;81.58;101912.66;5008400;28;20458;-73
2023/05/28 01:58:55;;;;;;;19.55;8.98;;;;;;;10.92;80.17;101911.59;5016542;28;20061;-72
2023/05/28 02:01:30;;;;;;;21.40;9.23;;;;;;;10.92;80.77;101921.63;5008139;28;20053;-72
2023/05/28 02:03:57;;;;;;;19.05;8.98;;;;;;;10.88;81.19;101918.19;5008060;28;20034;-72
2023/05/28 02:06:24;;;;;;;17.92;8.65;;;;;;;10.84;81.75;101919.31;5007795;28;20080;-72
2023/05/28 02:08:50;;;;;;;16.35;8.02;;;;;;;10.78;82.04;101913.34;5007531;28;20059;-72
2023/05/28 02:11:16;;;;;;;18.17;9.32;;;;;;;10.69;82.50;101903.88;5007294;28;20077;-71
2023/05/28 02:13:41;;;;;;;19.55;9.68;;;;;;;10.69;81.51;101896.56;5009312;28;20046;-71
2023/05/28 02:16:07;;;;;;;21.38;9.55;;;;;;;10.70;83.10;101900.16;5007466;28;20030;-71
2023/05/28 02:18:32;;;;;;;15.30;8.38;;;;;;;10.66;81.83;101894.00;5007791;28;20036;-71
2023/05/28 02:20:58;;;;;;;16.13;8.23;;;;;;;10.65;81.61;101900.44;5007779;28;20040;-71
2023/05/28 02:23:24;;;;;;;17.95;8.43;;;;;;;10.63;82.36;101899.66;5006371;28;20103;-72
2023/05/28 02:25:49;;;;;;;19.08;8.38;;;;;;;10.57;82.69;101896.38;5008185;28;20064;-71
2023/05/28 02:28:14;;;;;;;18.95;8.52;;;;;;;10.53;82.21;101900.22;5018402;28;20120;-71
2023/05/28 02:30:40;;;;;;;19.13;8.65;;;;;;;10.48;82.87;101900.47;5008977;28;20406;-71
2023/05/28 02:33:05;;;;;;;16.52;8.95;;;;;;;10.46;82.71;101897.84;5007800;28;20037;-71
2023/05/28 02:35:31;;;;;;;13.40;8.60;;;;;;;10.46;81.99;101897.84;5008725;28;20081;-71
2023/05/28 02:37:57;;;;;;;19.92;9.02;;;;;;;10.41;83.91;101901.78;5008627;28;20506;-71
2023/05/28 02:40:22;;;;;;;20.23;8.95;;;;;;;10.34;84.44;101901.22;4990333;28;20041;-71
2023/05/28 02:42:48;;;;;;;21.92;8.93;;;;;;;10.31;83.94;101900.53;5006496;28;20087;-71
2023/05/28 02:45:13;;;;;;;20.98;9.07;;;;;;;10.30;84.01;101907.78;5007689;28;20168;-71
2023/05/28 02:47:39;;;;;;;20.23;9.43;;;;;;;10.29;83.79;101899.72;5016100;28;20041;-71
2023/05/28 02:50:06;;;;;;;17.55;9.50;;;;;;;10.30;84.13;101893.31;5023313;28;20072;-71
2023/05/28 02:52:49;;;;;;;18.63;8.65;;;;;;;10.31;83.73;101903.25;5023584;28;20045;-71
2023/05/28 02:55:14;;;;;;;18.17;9.15;;;;;;;10.25;83.72;101899.00;5014641;28;20037;-71
2023/05/28 02:57:40;;;;;;;18.05;8.55;;;;;;;10.18;85.15;101900.28;5012931;28;20088;-71
2023/05/28 03:00:10;;;;;;;19.35;9.10;;;;;;;10.13;84.99;101910.53;5023337;28;20045;-71
2023/05/28 03:02:36;;;;;;;18.63;8.63;;;;;;;10.11;84.76;101909.72;5007420;28;20037;-71
2023/05/28 03:05:02;;;;;;;20.63;10.00;;;;;;;10.07;85.69;101905.41;5006689;28;20018;-71
2023/05/28 03:07:29;;;;;;;19.85;9.40;;;;;;;10.07;85.22;101905.41;5016381;28;20048;-71
2023/05/28 03:09:56;;;;;;;22.80;9.15;;;;;;;10.10;83.71;101906.13;5006155;28;20026;-71
2023/05/28 03:12:22;;;;;;;14.05;8.30;;;;;;;10.11;84.12;101907.00;5009034;28;20030;-71
2023/05/28 03:14:47;;;;;;;18.10;9.52;;;;;;;10.09;83.86;101909.81;5006983;28;20478;-71
2023/05/28 03:17:12;;;;;;;19.70;8.60;;;;;;;10.06;83.52;101904.53;5007063;28;20058;-71
2023/05/28 03:19:38;;;;;;;18.35;8.88;;;;;;;10.05;83.80;101900.06;5006838;28;20462;-71
2023/05/28 03:22:04;;;;;;;14.95;8.77;;;;;;;10.02;83.61;101899.34;5010033;28;20397;-71
2023/05/28 03:24:35;;;;;;;18.48;8.57;;;;;;;10.00;83.62;101902.16;5025588;28;20080;-71
2023/05/28 03:27:02;;;;;;;15.15;7.57;;;;;;;9.98;84.49;101904.09;5012913;28;20532;-71
2023/05/28 03:29:27;;;;;;;18.05;9.30;;;;;;;9.92;85.46;101902.53;5026046;28;20029;-71
2023/05/28 03:31:58;;;;;;;17.35;8.45;;;;;;;9.89;83.98;101900.00;5015747;28;20049;-71
2023/05/28 03:34:24;;;;;;;20.73;8.82;;;;;;;9.87;85.28;101904.63;4990020;28;20030;-71
2023/05/28 03:36:50;;;;;;;22.75;9.80;;;;;;;9.85;85.92;101901.13;5005205;28;20037;-71
2023/05/28 03:39:16;;;;;;;18.90;9.05;;;;;;;9.85;85.38;101901.13;5024485;28;20076;-71
2023/05/28 03:41:44;;;;;;;15.60;8.05;;;;;;;9.87;84.74;101909.19;5019076;28;20105;-71
2023/05/28 03:44:09;;;;;;;17.98;8.05;;;;;;;9.83;85.80;101910.31;5005829;28;20034;-71
2023/05/28 03:46:35;;;;;;;23.50;8.98;;;;;;;9.80;85.91;101918.63;5006407;28;20197;-71
2023/05/28 03:49:01;;;;;;;17.05;9.23;;;;;;;9.80;85.72;101911.34;5005795;28;20037;-71
2023/05/28 03:51:27;;;;;;;17.67;8.18;;;;;;;9.83;84.54;101908.47;5006164;28;20512;-71
2023/05/28 03:53:53;;;;;;;17.27;8.02;;;;;;;9.87;84.69;101904.63;5005660;28;20124;-71
2023/05/28 03:56:19;;;;;;;16.52;8.45;;;;;;;9.91;83.97;101913.50;5006979;28;20501;-72
2023/05/28 03:58:45;;;;;;;18.30;8.15;;;;;;;9.92;84.99;101913.41;5006197;28;20370;-71
2023/05/28 04:01:12;;;;;;;18.55;7.80;;;;;;;9.88;86.19;101913.66;5006181;28;20093;-71
2023/05/28 04:03:37;;;;;;;14.68;7.25;;;;;;;9.87;85.26;101914.63;5022334;28;20066;-71
2023/05/28 04:06:04;;;;;;;12.75;8.07;;;;;;;9.86;86.20;101916.47;5005980;28;20255;-71
2023/05/28 04:08:29;;;;;;;16.95;8.18;;;;;;;9.88;85.28;101919.09;5005343;28;20116;-70
2023/05/28 04:10:55;;;;;;;17.17;8.10;;;;;;;9.90;86.29;101917.19;5004917;28;20038;-71
2023/05/28 04:13:20;;;;;;;18.02;8.40;;;;;;;9.93;86.03;101917.91;5016874;28;20549;-70
2023/05/28 04:15:46;;;;;;;18.08;8.20;;;;;;;9.95;85.21;101924.13;5005777;28;20033;-70
2023/05/28 04:18:11;;;;;;;17.38;8.15;;;;;;;9.95;86.04;101924.13;5025143;28;20041;-70
2023/05/28 04:20:37;;;;;;;16.48;7.72;;;;;;;9.98;85.51;101917.66;5025375;28;20132;-70
2023/05/28 04:23:03;;;;;;;20.80;8.07;;;;;;;10.04;87.42;101924.63;5024051;28;20086;-71
2023/05/28 04:25:29;;;;;;;16.52;8.52;;;;;;;10.14;87.69;101921.31;5025109;28;20494;-71
2023/05/28 04:27:55;;;;;;;19.27;9.07;;;;;;;10.18;85.92;101917.47;5013352;28;20080;-71
2023/05/28 04:30:23;;;;;;;15.55;7.05;;;;;;;10.25;86.02;101933.50;5005712;28;20095;-70
2023/05/28 04:32:51;;;;;;;19.08;7.97;;;;;;;10.28;86.06;101936.06;5007040;28;20316;-71
2023/05/28 04:35:17;;;;;;;18.23;7.43;;;;;;;10.28;85.12;101934.22;5005406;28;20115;-71
2023/05/28 04:37:44;;;;;;;17.98;8.50;;;;;;;10.35;87.88;101938.38;5005931;28;20030;-70
2023/05/28 04:40:13;;;;;;;20.55;8.05;;;;;;;10.39;85.82;101942.66;5004972;28;20021;-70
2023/05/28 04:42:42;;;;;;;18.65;7.75;;;;;;;10.47;86.81;101942.25;5018132;28;20033;-70
2023/05/28 04:45:09;;;;;;;17.98;8.18;;;;;;;10.50;85.96;101939.38;5017277;28;20062;-71
2023/05/28 04:47:36;;;;;;;18.67;8.02;;;;;;;10.57;86.21;101937.19;5009617;28;20474;-70
2023/05/28 04:50:04;;;;;;;18.55;7.68;;;;;;;10.55;86.00;101929.13;5017970;28;20343;-70
2023/05/28 04:52:35;;;;;;;17.00;7.25;;;;;;;10.67;84.25;101938.44;5025712;28;20121;-71
2023/05/28 04:55:01;;;;;;;17.00;8.00;;;;;;;10.75;87.67;101944.34;5029705;28;20033;-70
2023/05/28 04:57:27;;;;;;;12.70;6.47;;;;;;;10.76;85.82;101947.94;5026755;28;20037;-70
2023/05/28 04:59:53;;;;;;;19.45;8.57;;;;;;;10.78;88.83;101944.19;5029009;28;20550;-70
2023/05/28 05:02:18;;;;;;;17.85;8.40;;;;;;;10.89;88.73;101957.19;5020008;28;20048;-70
2023/05/28 05:04:45;;;;;;;17.35;7.68;;;;;;;10.93;86.81;101939.72;5009382;28;20030;-70
2023/05/28 05:07:12;;;;;;;20.27;8.02;;;;;;;11.02;86.72;101949.22;5009375;28;20034;-70
2023/05/28 05:09:37;;;;;;;16.17;8.25;;;;;;;11.07;88.35;101947.97;5008796;28;20033;-70
2023/05/28 05:12:03;;;;;;;21.75;8.63;;;;;;;11.10;88.08;101949.66;5008664;28;20120;-70
2023/05/28 05:14:28;;;;;;;23.60;8.35;;;;;;;11.15;88.32;101945.69;5009056;28;20029;-70
2023/05/28 05:16:54;;;;;;;17.52;7.03;;;;;;;11.22;87.27;101940.75;4994289;28;20172;-70
2023/05/28 05:19:19;;;;;;;24.77;8.75;;;;;;;11.27;89.51;101944.09;5008647;28;20034;-70
2023/05/28 05:21:47;;;;;;;20.55;8.02;;;;;;;11.34;89.51;101941.91;4992989;28;20471;-70
2023/05/28 05:24:15;;;;;;;18.52;8.70;;;;;;;11.44;89.20;101954.03;4992711;28;20508;-70
2023/05/28 05:26:43;;;;;;;17.35;8.57;;;;;;;11.53;89.20;101947.16;5012633;28;20113;-70
2023/05/28 05:29:08;;;;;;;22.60;8.43;;;;;;;11.59;88.34;101947.66;5015130;28;20437;-70
2023/05/28 05:31:35;;;;;;;16.92;8.02;;;;;;;11.65;89.23;101952.75;5025058;28;20565;-70
2023/05/28 05:34:00;;;;;;;24.70;10.10;;;;;;;11.74;88.98;101954.06;5008582;28;20100;-70
2023/05/28 05:36:44;;;;;;;17.60;8.25;;;;;;;11.83;88.54;101961.72;5010047;28;20056;-70
2023/05/28 05:39:25;;;;;;;23.55;9.00;;;;;;;11.96;88.23;101962.75;5009589;28;20088;-70
2023/05/28 05:42:09;;;;;;;19.30;7.70;;;;;;;12.07;87.56;101961.22;5008649;28;20176;-70
2023/05/28 05:44:41;;;;;;;20.60;7.65;;;;;;;12.16;86.82;101968.84;5008793;28;20433;-70
2023/05/28 05:47:07;;;;;;;21.20;8.68;;;;;;;12.23;87.18;101971.09;5014432;28;20036;-70
2023/05/28 05:49:33;;;;;;;24.40;9.48;;;;;;;12.32;86.90;101974.25;5019221;28;20040;-69
2023/05/28 05:51:59;;;;;;;26.67;8.98;;;;;;;12.42;85.99;101970.84;5024103;28;20501;-70
2023/05/28 05:54:25;;;;;;;16.40;8.35;;;;;;;12.51;85.37;101967.53;5009793;28;20030;-70
2023/05/28 05:56:52;;;;;;;17.20;8.70;;;;;;;12.59;86.29;101964.34;5006724;28;20087;-70
2023/05/28 05:59:18;;;;;;;16.77;9.93;;;;;;;12.67;84.96;101961.09;5007848;28;20120;-70
2023/05/28 06:01:43;;;;;;;23.38;9.38;;;;;;;12.79;85.18;101957.59;5008348;28;20120;-70
2023/05/28 06:04:08;;;;;;;16.88;7.60;;;;;;;12.89;83.26;101960.63;4997434;28;20466;-70
2023/05/28 06:06:52;;;;;;;21.92;8.27;;;;;;;12.99;83.79;101962.66;5027310;28;20048;-70
2023/05/28 06:09:36;;;;;;;20.48;8.30;;;;;;;13.16;82.32;101968.88;5027445;28;20469;-69
2023/05/28 06:12:07;;;;;;;26.05;8.63;;;;;;;13.27;81.10;101960.88;5011729;28;20033;-70
2023/05/28 06:14:33;;;;;;;24.13;8.20;;;;;;;13.41;80.79;101963.56;5023612;28;20036;-70
2023/05/28 06:16:58;;;;;;;25.05;8.55;;;;;;;13.52;80.21;101961.03;5012151;28;20025;-70
2023/05/28 06:19:24;;;;;;;19.08;8.13;;;;;;;13.68;80.35;101965.44;5017238;28;20171;-70
2023/05/28 06:21:51;;;;;;;22.92;8.50;;;;;;;13.83;79.86;101961.66;5026695;28;20126;-70
2023/05/28 06:24:16;;;;;;;19.27;8.80;;;;;;;13.96;80.38;101962.59;5021916;28;20539;-70
2023/05/28 06:26:44;;;;;;;24.50;8.30;;;;;;;14.07;78.54;101959.09;5006917;28;20493;-70
2023/05/28 06:29:10;;;;;;;23.95;8.27;;;;;;;14.17;77.69;101957.47;5007400;28;20259;-68
2023/05/28 06:31:35;;;;;;;21.52;8.00;;;;;;;14.25;78.79;101954.19;4992811;28;20265;-70
2023/05/28 06:34:02;;;;;;;19.67;7.93;;;;;;;14.37;76.99;101955.22;5027214;28;20086;-70
2023/05/28 06:36:28;;;;;;;18.02;8.48;;;;;;;14.51;78.44;101958.75;5027017;28;20053;-69
2023/05/28 06:38:53;;;;;;;21.85;8.88;;;;;;;14.61;75.95;101958.97;5027002;28;20033;-69
2023/05/28 06:41:19;;;;;;;15.77;8.13;;;;;;;14.79;77.02;101954.91;5024005;28;20021;-70
2023/05/28 06:43:47;;;;;;;23.10;9.50;;;;;;;14.94;75.66;101965.75;5007618;28;20377;-70
2023/05/28 06:46:22;;;;;;;22.13;8.48;;;;;;;15.10;74.42;101968.22;5023555;28;20477;-69
2023/05/28 06:48:47;;;;;;;15.23;8.07;;;;;;;15.22;76.50;101959.09;5008442;28;20038;-69
2023/05/28 06:51:13;;;;;;;21.67;9.15;;;;;;;15.38;73.16;101956.06;5020800;28;20048;-70
2023/05/28 06:53:38;;;;;;;24.75;8.75;;;;;;;15.54;73.15;101954.81;5016329;28;20482;-70
2023/05/28 06:56:05;;;;;;;17.90;9.00;;;;;;;15.74;73.00;101946.97;4990005;28;20343;-70
2023/05/28 06:58:51;;;;;;;22.45;8.02;;;;;;;15.99;74.09;101952.31;5025993;28;20037;-70
2023/05/28 07:01:35;;;;;;;17.92;7.80;;;;;;;16.24;72.13;101955.88;5020759;28;20455;-71
2023/05/28 07:04:07;;;;;;;18.42;7.85;;;;;;;16.44;71.36;101955.19;5006937;28;20092;-70
2023/05/28 07:06:59;;;;;;;19.02;9.02;;;;;;;16.66;70.73;101950.72;5008548;28;20397;-71
2023/05/28 07:09:30;;;;;;;21.13;8.48;;;;;;;16.78;71.26;101956.13;5005741;28;20141;-69
2023/05/28 07:11:56;;;;;;;18.35;7.60;;;;;;;16.92;71.30;101955.00;5005785;28;20033;-70
2023/05/28 07:14:22;;;;;;;21.65;7.90;;;;;;;17.02;69.60;101957.88;5006728;28;20030;-71
2023/05/28 07:16:48;;;;;;;22.25;7.85;;;;;;;17.05;67.84;101955.75;5018298;28;20042;-71
2023/05/28 07:19:13;;;;;;;21.70;7.70;;;;;;;17.05;66.73;101958.50;5002722;28;20041;-70
2023/05/28 07:21:39;;;;;;;18.15;7.70;;;;;;;17.26;71.07;101963.25;5009474;28;20061;-70
2023/05/28 07:24:05;;;;;;;16.52;8.05;;;;;;;17.49;68.19;101966.81;5013612;28;20196;-70
2023/05/28 07:26:35;;;;;;;21.83;7.72;;;;;;;17.58;68.28;101968.81;5012780;28;20103;-70
2023/05/28 07:29:01;;;;;;;13.65;7.55;;;;;;;17.59;68.55;101974.19;5021379;28;20037;-70
2023/05/28 07:31:28;;;;;;;18.80;8.30;;;;;;;17.65;66.11;101972.78;5022428;28;20342;-71
2023/05/28 07:33:53;;;;;;;20.42;8.05;;;;;;;17.73;66.98;101972.13;5006333;28;20481;-70
2023/05/28 07:36:19;;;;;;;19.08;8.18;;;;;;;17.69;66.44;101968.75;5005728;28;20054;-71
2023/05/28 07:38:45;;;;;;;15.50;7.43;;;;;;;17.71;66.32;101966.75;5006282;28;20037;-70
2023/05/28 07:41:10;;;;;;;24.02;8.38;;;;;;;17.69;66.97;101977.03;5005550;28;20674;-69
2023/05/28 07:43:43;;;;;;;16.30;8.15;;;;;;;17.59;65.70;101970.56;5022895;28;20144;-70
2023/05/28 07:46:21;;;;;;;23.45;7.88;;;;;;;17.45;64.97;101968.09;5024142;28;20037;-71
2023/05/28 07:48:50;;;;;;;20.70;8.52;;;;;;;17.41;66.58;101967.47;5009299;28;20859;-71
2023/05/28 07:51:27;;;;;;;21.30;8.68;;;;;;;17.41;67.02;101974.84;5015039;28;20029;-70
2023/05/28 07:54:15;;;;;;;21.45;8.00;;;;;;;17.41;68.08;101977.59;5010728;28;20095;-71
2023/05/28 07:56:41;;;;;;;18.92;8.32;;;;;;;17.41;68.49;101983.97;5020528;28;20040;-70
2023/05/28 07:59:10;;;;;;;17.38;8.40;;;;;;;17.30;68.31;101981.25;5005586;28;20587;-71
2023/05/28 08:01:36;;;;;;;16.25;8.68;;;;;;;17.19;69.39;101971.09;5007964;28;20464;-70
2023/05/28 08:04:04;;;;;;;19.00;8.18;;;;;;;17.11;69.35;101975.47;5008103;28;20037;-69
2023/05/28 08:06:33;;;;;;;22.33;8.93;;;;;;;17.03;69.76;101974.25;5012404;28;20033;-70
2023/05/28 08:09:00;;;;;;;19.45;9.40;;;;;;;17.09;70.31;101984.75;5011466;28;20033;-71
2023/05/28 08:11:25;;;;;;;21.02;8.82;;;;;;;17.15;69.05;101979.75;5009679;28;20439;-71
2023/05/28 08:13:51;;;;;;;19.60;9.50;;;;;;;17.11;69.12;101981.84;5005476;28;20036;-70
2023/05/28 08:16:17;;;;;;;18.67;9.00;;;;;;;17.15;68.77;101974.22;5010240;28;20037;-70
2023/05/28 08:19:04;;;;;;;21.98;8.98;;;;;;;17.38;68.88;101972.34;5015813;28;20041;-70
2023/05/28 08:21:30;;;;;;;18.17;8.50;;;;;;;17.63;67.92;101974.78;5009299;28;20087;-70
2023/05/28 08:23:56;;;;;;;19.38;8.93;;;;;;;18.15;66.84;101970.38;5010666;28;20037;-70
2023/05/28 08:26:22;;;;;;;16.38;8.02;;;;;;;18.94;66.90;101965.25;5011201;28;20040;-70
2023/05/28 08:28:47;;;;;;;24.00;8.52;;;;;;;19.27;61.56;101971.47;5008002;28;20136;-70
2023/05/28 08:31:13;;;;;;;14.82;7.90;;;;;;;19.40;60.87;101969.31;4995762;28;20137;-71
2023/05/28 08:33:51;;;;;;;19.90;8.75;;;;;;;20.09;62.76;101966.50;5013580;28;20033;-70
2023/05/28 08:36:18;;;;;;;18.52;8.27;;;;;;;20.45;57.01;101963.16;5009566;28;20046;-70
2023/05/28 08:38:48;;;;;;;15.07;7.97;;;;;;;20.60;58.45;101964.44;5020439;28;20128;-70
2023/05/28 08:41:14;;;;;;;20.35;8.52;;;;;;;20.75;57.05;101960.22;5004812;28;20026;-71
2023/05/28 08:43:39;;;;;;;18.10;7.57;;;;;;;20.85;56.91;101949.97;5009688;28;20080;-71
2023/05/28 08:46:05;;;;;;;18.58;8.38;;;;;;;20.84;57.16;101958.41;5005207;28;20139;-69
2023/05/28 08:48:40;;;;;;;14.35;6.45;;;;;;;21.41;56.27;101952.81;5001781;28;20049;-70
2023/05/28 08:51:06;;;;;;;17.77;6.65;;;;;;;21.41;50.58;101945.38;5015988;28;20659;-70
2023/05/28 08:53:46;;;;;;;16.77;5.50;;;;;;;21.45;53.11;101954.22;5012660;28;20757;-70
2023/05/28 08:56:13;;;;;;;10.50;5.22;;;;;;;21.42;48.34;101955.41;5012331;28;20041;-69
2023/05/28 08:58:39;;;;;;;12.77;5.10;;;;;;;21.25;48.49;101947.88;5001046;28;20083;-71
2023/05/28 09:01:07;;;;;;;10.20;4.15;;;;;;;21.41;51.41;101942.59;5014075;28;20022;-70
2023/05/28 09:03:45;;;;;;;11.65;5.22;;;;;;;21.86;50.84;101948.09;5006281;28;20132;-71
2023/05/28 09:06:16;;;;;;;14.18;5.68;;;;;;;21.88;49.07;101951.59;5010906;28;20107;-70
2023/05/28 09:08:46;;;;;;;12.63;5.20;;;;;;;22.17;51.43;101946.84;5005058;28;20096;-70
2023/05/28 09:11:21;;;;;;;12.85;5.25;;;;;;;22.21;48.60;101943.59;5020685;28;20141;-71
2023/05/28 09:13:47;;;;;;;14.00;5.20;;;;;;;22.30;50.08;101937.09;5007795;28;20478;-70
2023/05/28 09:16:21;;;;;;;11.93;5.07;;;;;;;22.71;52.07;101934.63;5011980;28;20034;-70
2023/05/28 09:19:01;;;;;;;17.08;5.72;;;;;;;22.75;48.68;101936.00;5017727;28;20497;-71
2023/05/28 09:21:26;;;;;;;11.93;5.18;;;;;;;22.53;45.84;101928.25;5017418;28;20052;-70
2023/05/28 09:23:52;;;;;;;10.70;5.00;;;;;;;22.77;49.53;101933.09;5015322;28;20025;-69
2023/05/28 09:26:19;;;;;;;7.93;4.20;;;;;;;22.90;46.10;101925.22;5008517;28;20053;-71
2023/05/28 09:28:53;;;;;;;11.98;4.55;;;;;;;22.56;43.85;101926.00;5019852;28;20026;-70
2023/05/28 09:31:18;;;;;;;12.98;4.80;;;;;;;22.23;42.52;101932.34;5006703;28;20049;-70
2023/05/28 09:33:47;;;;;;;14.00;4.28;;;;;;;22.02;43.87;101930.75;5010361;28;20121;-70
2023/05/28 09:36:16;;;;;;;14.07;3.97;;;;;;;22.30;44.14;101931.56;5010360;28;20108;-71
2023/05/28 09:38:43;;;;;;;11.70;4.03;;;;;;;22.39;43.11;101936.13;5004982;28;20038;-72
2023/05/28 09:41:22;;;;;;;8.07;4.03;;;;;;;22.66;42.49;101929.56;5004895;28;20053;-72
2023/05/28 09:43:59;;;;;;;9.00;3.92;;;;;;;22.71;44.82;101951.25;5009629;28;20046;-70
2023/05/28 09:46:33;;;;;;;9.48;3.78;;;;;;;22.79;44.59;101928.22;5008259;28;20058;-71
2023/05/28 09:48:59;;;;;;;12.57;4.43;;;;;;;22.96;45.40;101929.22;5008325;28;20056;-71
2023/05/28 09:51:31;;;;;;;12.27;4.20;;;;;;;23.45;45.41;101930.28;5009978;28;20041;-70
2023/05/28 09:54:05;;;;;;;10.33;4.30;;;;;;;23.34;41.46;101923.13;5006890;28;20040;-71
2023/05/28 09:56:32;;;;;;;9.77;4.13;;;;;;;22.89;41.61;101924.31;5004823;28;20117;-71
2023/05/28 09:59:00;;;;;;;10.70;4.22;;;;;;;22.90;41.46;101925.22;5007780;28;20497;-71
2023/05/28 10:01:55;;;;;;;12.30;5.22;;;;;;;23.02;43.45;101920.22;5008252;28;20626;-71
2023/05/28 10:04:43;;;;;;;11.30;4.30;;;;;;;22.84;43.19;101923.03;5022786;28;20713;-70
2023/05/28 10:07:10;;;;;;;12.57;4.57;;;;;;;23.00;40.89;101919.53;5008073;28;20521;-72
2023/05/28 10:09:39;;;;;;;12.73;4.63;;;;;;;23.06;39.98;101919.72;5008269;28;20486;-71
2023/05/28 10:12:10;;;;;;;8.93;4.10;;;;;;;22.98;45.54;101916.91;5008053;28;20024;-70
2023/05/28 10:14:37;;;;;;;11.68;4.57;;;;;;;22.89;40.78;101915.13;5009203;28;20465;-71
2023/05/28 10:17:03;;;;;;;9.30;3.88;;;;;;;23.07;40.86;101920.59;5020656;28;20088;-70
2023/05/28 10:19:29;;;;;;;9.05;4.90;;;;;;;23.11;44.58;101922.00;5028880;28;20041;-70
2023/05/28 10:21:55;;;;;;;10.57;4.80;;;;;;;23.04;40.44;101920.94;5028448;28;20468;-70
2023/05/28 10:24:21;;;;;;;13.18;4.90;;;;;;;23.03;42.25;101921.97;5009180;28;20037;-71
2023/05/28 10:26:47;;;;;;;9.60;4.22;;;;;;;23.13;45.72;101926.38;5007973;28;20018;-70
2023/05/28 10:29:12;;;;;;;11.07;4.28;;;;;;;23.45;44.41;101921.94;5009944;28;20096;-71
2023/05/28 10:31:38;;;;;;;11.82;4.00;;;;;;;23.45;41.02;101918.28;5012386;28;20413;-71
2023/05/28 10:34:15;;;;;;;11.68;4.07;;;;;;;23.39;42.69;101914.28;5008998;28;20117;-70
2023/05/28 10:36:50;;;;;;;10.80;4.10;;;;;;;23.40;41.51;101908.56;5008627;28;20049;-71
2023/05/28 10:39:16;;;;;;;9.73;4.05;;;;;;;23.30;40.53;101921.72;5008536;28;20088;-71
2023/05/28 10:41:42;;;;;;;10.10;4.22;;;;;;;23.67;45.43;101917.69;5008397;28;20437;-71
2023/05/28 10:44:07;;;;;;;9.00;4.10;;;;;;;23.78;39.84;101919.25;5007571;28;20552;-72
2023/05/28 10:46:37;;;;;;;10.00;3.85;;;;;;;23.76;40.02;101927.78;5008643;28;20156;-72
2023/05/28 10:49:05;;;;;;;9.55;4.22;;;;;;;23.65;40.77;101929.00;5024257;28;20042;-71
2023/05/28 10:51:56;;;;;;;9.82;3.72;;;;;;;23.60;41.78;101931.38;5008370;28;20398;-71
2023/05/28 10:54:29;;;;;;;9.00;4.05;;;;;;;23.75;43.11;101933.53;5007871;28;20041;-71
2023/05/28 10:57:13;;;;;;;10.52;4.43;;;;;;;23.96;42.68;101930.22;5007510;28;20041;-70
2023/05/28 10:59:59;;;;;;;8.32;3.65;;;;;;;23.82;40.97;101929.00;5028283;28;20137;-71
2023/05/28 11:02:27;;;;;;;6.88;3.78;;;;;;;23.74;41.38;101921.53;5019677;28;20676;-71
2023/05/28 11:05:00;;;;;;;10.23;4.10;;;;;;;23.56;40.81;101931.88;5007987;28;20525;-71
2023/05/28 11:07:52;;;;;;;10.63;4.18;;;;;;;23.55;42.09;101928.25;5008058;28;20045;-71
2023/05/28 11:10:18;;;;;;;21.60;4.40;;;;;;;23.32;39.53;101927.13;5006952;28;20049;-70
2023/05/28 11:12:47;;;;;;;11.27;4.25;;;;;;;23.47;37.81;101924.56;5008136;28;20037;-71
2023/05/28 11:15:13;;;;;;;8.27;3.38;;;;;;;23.87;42.65;101930.22;5007360;28;20037;-70
2023/05/28 11:17:46;;;;;;;8.07;3.88;;;;;;;24.14;39.77;101928.16;5008005;28;20109;-70
2023/05/28 11:20:29;;;;;;;9.10;3.80;;;;;;;24.21;39.69;101929.22;5007017;28;20512;-71
2023/05/28 11:22:55;;;;;;;12.55;4.05;;;;;;;24.16;39.22;101923.31;5007866;28;20046;-70
2023/05/28 11:25:22;;;;;;;8.90;3.80;;;;;;;24.04;37.84;101938.59;5007052;28;20534;-71